Albany Township, Maine
Current Conditions -  °F | °C
As of 1:52 PM on Thursday 30 Oct 2014 (Local Time) from KBML Reporting Station
Overcast Overcast  
Wind Chill: 44°   Ceiling: 4200
Heat Index: 47°   Visibility: 10mi
Dew Point: 34°   Wind: 7mph
Humidity: 61%   Direction: NA
Pressure: 29.89"   Gusts: NA
Location:  44.3718°N, 70.8421°W
Report Text: KBML 301752Z AUTO VRB06KT 10SM OVC042 08/01 A2989 RMK AO2 RAE1659 SLP134 P0000 60000 T00830011 10100 20017 58002
Loading
Personal Weather Stations






























Interactive Weather Map New forecast layout! Learn more

10-Day Weather Forecast

Advertisements
Track Severe Weather on mobile